Gilmanton, NH (03237)

3:46 PM EST on December 09, 2016 (GMT -0500)
Loudon Ridge | | Change Station

Elev 951 ft 43.36 °N, 71.40 °W | Updated 3 seconds ago

Partly Cloudy
Partly Cloudy
23.4 °F
Feels Like 23 °F
N
2.0
Wind Variable Wind from West

Today
High -- | Low -- °F
--% Chance of Precip.
Yesterday
High -- | Low -- °F
Precip. -- in
Pressure 30.04 in
Visibility 10.0 miles
Clouds Scattered Clouds 4700 ft
Windchill 23 °F
Dew Point 12 °F
Humidity 61%
Rainfall 0.00 in
Snow Depth Not available.
7:06 AM 4:09 PM
Waxing Gibbous, 77% visible
METAR KLCI 091956Z AUTO 30013G22KT 10SM SCT047 M03/M12 A2997 RMK AO2 SLP170 T10331122 FZRANO
Pressure 30.04 in
Visibility 10.0 miles
Clouds Scattered Clouds 4700 ft
Windchill 23 °F
Dew Point 12 °F
Humidity 61%
Rainfall 0.00 in
Snow Depth Not available.
7:06 AM 4:09 PM
Waxing Gibbous, 77% visible
METAR KLCI 091956Z AUTO 30013G22KT 10SM SCT047 M03/M12 A2997 RMK AO2 SLP170 T10331122 FZRANO

10-Day Weather Forecast

Almanac

Astronomy

Dec. 09, 2016 Rise Set
Actual Time
Civil Twilight
Nautical Twilight
Astronomical Twilight
Moon
Length of Visible Light
Length of Day
Tomorrow will be .
, % of the Moon is Illuminated

Today's Extremes

State Highs State Lows

Community

WunderPhotos

Upload Photos

1,956,517 photos uploaded!

WunderBlog® & News

Nearby

Air Quality

  Air Quality AQ Index Pollutant
Not available.

Snow Depth

Station Depth Elevation

Earthquake Activity

City Distance Mag. Time & Date
Minimum magnitude displayed is 2.5.

Coastal Water Temperatures

Place Temperature

Stations

Nearby Weather Stations

Station Location Temp. Windchill Dew Point Humidity Wind Precip. Elev Updated Type
                   

Watches & Warnings

There are currently no watches in effect.